sensor_id;sensor_type;location;lat;lon;timestamp;pressure;altitude;pressure_sealevel;temperature;humidity
48364;BME280;34170;54.364;18.582;2022-07-05T00:01:00;100517.66;;;14.34;93.59
48364;BME280;34170;54.364;18.582;2022-07-05T00:03:27;100534.34;;;14.21;94.76
48364;BME280;34170;54.364;18.582;2022-07-05T00:05:56;100522.63;;;14.12;96.36
48364;BME280;34170;54.364;18.582;2022-07-05T00:08:23;100523.81;;;14.09;96.01
48364;BME280;34170;54.364;18.582;2022-07-05T00:10:51;100532.47;;;14.21;95.70
48364;BME280;34170;54.364;18.582;2022-07-05T00:13:19;100519.94;;;14.12;95.09
48364;BME280;34170;54.364;18.582;2022-07-05T00:15:46;100523.63;;;14.03;96.30
48364;BME280;34170;54.364;18.582;2022-07-05T00:18:13;100522.94;;;14.01;96.13
48364;BME280;34170;54.364;18.582;2022-07-05T00:20:41;100529.75;;;14.13;95.46
48364;BME280;34170;54.364;18.582;2022-07-05T00:23:08;100530.81;;;14.20;95.30
48364;BME280;34170;54.364;18.582;2022-07-05T00:25:35;100523.84;;;14.18;94.54
48364;BME280;34170;54.364;18.582;2022-07-05T00:28:03;100522.25;;;13.99;95.94
48364;BME280;34170;54.364;18.582;2022-07-05T00:30:31;100529.03;;;14.03;95.69
48364;BME280;34170;54.364;18.582;2022-07-05T00:32:58;100528.50;;;13.99;95.75
48364;BME280;34170;54.364;18.582;2022-07-05T00:35:26;100527.38;;;14.10;95.82
48364;BME280;34170;54.364;18.582;2022-07-05T00:37:53;100536.22;;;14.20;95.22
48364;BME280;34170;54.364;18.582;2022-07-05T00:40:21;100542.56;;;14.11;95.44
48364;BME280;34170;54.364;18.582;2022-07-05T00:42:48;100539.00;;;14.02;95.40
48364;BME280;34170;54.364;18.582;2022-07-05T00:45:16;100548.19;;;14.18;94.78
48364;BME280;34170;54.364;18.582;2022-07-05T00:47:43;100548.69;;;14.13;94.47
48364;BME280;34170;54.364;18.582;2022-07-05T00:50:10;100548.88;;;14.20;94.40
48364;BME280;34170;54.364;18.582;2022-07-05T00:52:38;100552.59;;;14.27;94.13
48364;BME280;34170;54.364;18.582;2022-07-05T00:55:06;100553.38;;;14.11;94.52
48364;BME280;34170;54.364;18.582;2022-07-05T00:57:34;100560.78;;;14.01;95.26
48364;BME280;34170;54.364;18.582;2022-07-05T01:00:02;100549.25;;;13.90;95.49
48364;BME280;34170;54.364;18.582;2022-07-05T01:02:29;100549.09;;;14.00;95.74
48364;BME280;34170;54.364;18.582;2022-07-05T01:04:57;100548.63;;;14.05;95.44
48364;BME280;34170;54.364;18.582;2022-07-05T01:07:24;100554.25;;;14.11;95.19
48364;BME280;34170;54.364;18.582;2022-07-05T01:09:52;100556.53;;;13.98;95.12
48364;BME280;34170;54.364;18.582;2022-07-05T01:12:20;100547.63;;;14.06;95.46
48364;BME280;34170;54.364;18.582;2022-07-05T01:14:48;100543.88;;;13.99;94.91
48364;BME280;34170;54.364;18.582;2022-07-05T01:17:16;100544.81;;;13.89;95.77
48364;BME280;34170;54.364;18.582;2022-07-05T01:19:44;100552.78;;;13.91;95.69
48364;BME280;34170;54.364;18.582;2022-07-05T01:22:19;100543.75;;;13.74;96.78
48364;BME280;34170;54.364;18.582;2022-07-05T01:24:48;100538.81;;;13.69;97.23
48364;BME280;34170;54.364;18.582;2022-07-05T01:27:18;100542.94;;;13.82;96.95
48364;BME280;34170;54.364;18.582;2022-07-05T01:29:45;100543.78;;;13.82;95.82
48364;BME280;34170;54.364;18.582;2022-07-05T01:32:13;100542.31;;;13.62;96.97
48364;BME280;34170;54.364;18.582;2022-07-05T01:34:41;100546.00;;;13.61;97.90
48364;BME280;34170;54.364;18.582;2022-07-05T01:37:09;100548.13;;;13.75;97.17
48364;BME280;34170;54.364;18.582;2022-07-05T01:39:37;100532.56;;;13.69;96.88
48364;BME280;34170;54.364;18.582;2022-07-05T01:42:06;100534.09;;;13.71;96.90
48364;BME280;34170;54.364;18.582;2022-07-05T01:44:33;100541.03;;;13.74;97.40
48364;BME280;34170;54.364;18.582;2022-07-05T01:47:06;100532.13;;;13.82;96.57
48364;BME280;34170;54.364;18.582;2022-07-05T01:49:38;100519.44;;;13.82;96.49
48364;BME280;34170;54.364;18.582;2022-07-05T01:52:10;100522.16;;;13.82;96.24
48364;BME280;34170;54.364;18.582;2022-07-05T01:54:39;100525.88;;;13.81;96.56
48364;BME280;34170;54.364;18.582;2022-07-05T01:57:07;100523.78;;;13.67;97.60
48364;BME280;34170;54.364;18.582;2022-07-05T01:59:36;100529.53;;;13.72;97.38
48364;BME280;34170;54.364;18.582;2022-07-05T02:02:06;100516.25;;;13.52;98.24
48364;BME280;34170;54.364;18.582;2022-07-05T02:04:35;100523.78;;;13.67;98.08
48364;BME280;34170;54.364;18.582;2022-07-05T02:07:06;100516.44;;;13.59;97.59
48364;BME280;34170;54.364;18.582;2022-07-05T02:09:34;100514.25;;;13.63;97.48
48364;BME280;34170;54.364;18.582;2022-07-05T02:12:03;100528.88;;;13.70;97.18
48364;BME280;34170;54.364;18.582;2022-07-05T02:14:32;100515.50;;;13.68;96.52
48364;BME280;34170;54.364;18.582;2022-07-05T02:17:02;100525.59;;;13.66;97.09
48364;BME280;34170;54.364;18.582;2022-07-05T02:19:31;100531.19;;;13.65;96.98
48364;BME280;34170;54.364;18.582;2022-07-05T02:21:58;100533.78;;;13.75;97.06
48364;BME280;34170;54.364;18.582;2022-07-05T02:24:26;100531.50;;;13.62;97.03
48364;BME280;34170;54.364;18.582;2022-07-05T02:27:02;100529.19;;;13.75;96.56
48364;BME280;34170;54.364;18.582;2022-07-05T02:29:30;100539.91;;;13.85;96.21
48364;BME280;34170;54.364;18.582;2022-07-05T02:31:59;100540.22;;;13.82;96.27
48364;BME280;34170;54.364;18.582;2022-07-05T02:34:28;100540.72;;;13.77;97.06
48364;BME280;34170;54.364;18.582;2022-07-05T02:36:55;100535.78;;;13.72;96.25
48364;BME280;34170;54.364;18.582;2022-07-05T02:39:22;100536.78;;;13.98;95.39
48364;BME280;34170;54.364;18.582;2022-07-05T02:41:53;100535.59;;;14.00;95.48
48364;BME280;34170;54.364;18.582;2022-07-05T02:44:20;100539.84;;;14.03;95.33
48364;BME280;34170;54.364;18.582;2022-07-05T02:46:49;100540.13;;;13.91;95.60
48364;BME280;34170;54.364;18.582;2022-07-05T02:49:17;100543.44;;;14.11;94.70
48364;BME280;34170;54.364;18.582;2022-07-05T02:51:45;100541.97;;;14.25;93.17
48364;BME280;34170;54.364;18.582;2022-07-05T02:54:13;100544.22;;;14.38;93.01
48364;BME280;34170;54.364;18.582;2022-07-05T02:56:42;100546.25;;;14.36;92.66
48364;BME280;34170;54.364;18.582;2022-07-05T02:59:12;100546.09;;;14.46;92.54
48364;BME280;34170;54.364;18.582;2022-07-05T03:01:39;100551.91;;;14.59;91.54
48364;BME280;34170;54.364;18.582;2022-07-05T03:04:12;100556.66;;;14.65;91.19
48364;BME280;34170;54.364;18.582;2022-07-05T03:06:45;100551.63;;;14.71;90.05
48364;BME280;34170;54.364;18.582;2022-07-05T03:09:19;100551.28;;;14.82;90.59
48364;BME280;34170;54.364;18.582;2022-07-05T03:11:46;100550.28;;;14.83;90.77
48364;BME280;34170;54.364;18.582;2022-07-05T03:14:14;100552.66;;;14.94;88.68
48364;BME280;34170;54.364;18.582;2022-07-05T03:16:42;100555.88;;;15.14;88.59
48364;BME280;34170;54.364;18.582;2022-07-05T03:19:12;100545.41;;;15.28;87.60
48364;BME280;34170;54.364;18.582;2022-07-05T03:21:40;100558.09;;;15.60;85.94
48364;BME280;34170;54.364;18.582;2022-07-05T03:24:08;100548.41;;;15.82;84.89
48364;BME280;34170;54.364;18.582;2022-07-05T03:26:38;100541.38;;;16.04;83.88
48364;BME280;34170;54.364;18.582;2022-07-05T03:29:05;100552.06;;;16.45;82.29
48364;BME280;34170;54.364;18.582;2022-07-05T03:31:33;100555.84;;;16.99;79.80
48364;BME280;34170;54.364;18.582;2022-07-05T03:34:03;100554.28;;;17.27;78.38
48364;BME280;34170;54.364;18.582;2022-07-05T03:36:31;100562.94;;;17.84;76.44
48364;BME280;34170;54.364;18.582;2022-07-05T03:39:02;100558.75;;;17.96;73.98
48364;BME280;34170;54.364;18.582;2022-07-05T03:41:31;100559.38;;;18.43;71.54
48364;BME280;34170;54.364;18.582;2022-07-05T03:43:59;100563.69;;;20.51;66.94
48364;BME280;34170;54.364;18.582;2022-07-05T03:46:27;100560.09;;;23.10;54.44
48364;BME280;34170;54.364;18.582;2022-07-05T03:48:55;100568.31;;;24.66;47.47
48364;BME280;34170;54.364;18.582;2022-07-05T03:51:22;100565.75;;;25.55;43.77
48364;BME280;34170;54.364;18.582;2022-07-05T03:53:51;100565.88;;;25.84;42.79
48364;BME280;34170;54.364;18.582;2022-07-05T03:56:20;100571.94;;;26.45;41.36
48364;BME280;34170;54.364;18.582;2022-07-05T03:58:52;100579.31;;;26.68;40.52
48364;BME280;34170;54.364;18.582;2022-07-05T04:01:19;100580.72;;;26.82;40.57
48364;BME280;34170;54.364;18.582;2022-07-05T04:03:47;100575.13;;;24.08;45.95
48364;BME280;34170;54.364;18.582;2022-07-05T04:06:16;100573.03;;;22.96;49.23
48364;BME280;34170;54.364;18.582;2022-07-05T04:08:44;100572.53;;;23.37;47.71
48364;BME280;34170;54.364;18.582;2022-07-05T04:11:12;100583.06;;;22.70;49.92
48364;BME280;34170;54.364;18.582;2022-07-05T04:13:43;100577.16;;;22.01;51.43
48364;BME280;34170;54.364;18.582;2022-07-05T04:16:11;100587.94;;;21.83;52.43
48364;BME280;34170;54.364;18.582;2022-07-05T04:18:38;100591.94;;;21.74;53.34
48364;BME280;34170;54.364;18.582;2022-07-05T04:21:06;100582.16;;;21.04;56.51
48364;BME280;34170;54.364;18.582;2022-07-05T04:23:34;100596.19;;;23.07;50.62
48364;BME280;34170;54.364;18.582;2022-07-05T04:26:03;100590.44;;;26.09;43.71
48364;BME280;34170;54.364;18.582;2022-07-05T04:28:35;100594.66;;;28.84;37.41
48364;BME280;34170;54.364;18.582;2022-07-05T04:31:06;100593.94;;;29.49;34.35
48364;BME280;34170;54.364;18.582;2022-07-05T04:33:39;100577.25;;;27.67;36.70
48364;BME280;34170;54.364;18.582;2022-07-05T04:36:08;100577.34;;;25.57;40.31
48364;BME280;34170;54.364;18.582;2022-07-05T04:38:36;100580.78;;;24.31;43.75
48364;BME280;34170;54.364;18.582;2022-07-05T04:41:04;100589.44;;;23.02;47.46
48364;BME280;34170;54.364;18.582;2022-07-05T04:43:33;100573.63;;;21.74;51.71
48364;BME280;34170;54.364;18.582;2022-07-05T04:46:05;100580.28;;;21.11;54.90
48364;BME280;34170;54.364;18.582;2022-07-05T04:48:33;100581.38;;;21.24;54.75
48364;BME280;34170;54.364;18.582;2022-07-05T04:51:01;100573.28;;;20.89;55.67
48364;BME280;34170;54.364;18.582;2022-07-05T04:53:30;100582.28;;;20.69;56.43
48364;BME280;34170;54.364;18.582;2022-07-05T04:55:58;100589.81;;;20.67;56.79
48364;BME280;34170;54.364;18.582;2022-07-05T04:58:26;100591.78;;;20.38;58.98
48364;BME280;34170;54.364;18.582;2022-07-05T05:00:53;100583.41;;;20.47;57.92
48364;BME280;34170;54.364;18.582;2022-07-05T05:03:20;100581.56;;;20.54;57.78
48364;BME280;34170;54.364;18.582;2022-07-05T05:05:48;100584.44;;;20.04;59.24
48364;BME280;34170;54.364;18.582;2022-07-05T05:08:16;100588.06;;;20.11;59.60
48364;BME280;34170;54.364;18.582;2022-07-05T05:10:44;100583.19;;;20.42;58.61
48364;BME280;34170;54.364;18.582;2022-07-05T05:13:11;100594.91;;;20.70;58.12
48364;BME280;34170;54.364;18.582;2022-07-05T05:15:39;100588.28;;;21.13;56.07
48364;BME280;34170;54.364;18.582;2022-07-05T05:18:06;100590.19;;;21.19;56.21
48364;BME280;34170;54.364;18.582;2022-07-05T05:20:33;100589.22;;;21.80;53.66
48364;BME280;34170;54.364;18.582;2022-07-05T05:23:06;100595.31;;;23.13;50.60
48364;BME280;34170;54.364;18.582;2022-07-05T05:25:34;100611.00;;;26.54;43.22
48364;BME280;34170;54.364;18.582;2022-07-05T05:28:03;100608.84;;;28.05;38.07
48364;BME280;34170;54.364;18.582;2022-07-05T05:30:30;100618.66;;;29.01;36.99
48364;BME280;34170;54.364;18.582;2022-07-05T05:32:57;100615.50;;;29.41;35.45
48364;BME280;34170;54.364;18.582;2022-07-05T05:35:25;100615.50;;;29.41;35.45
48364;BME280;34170;54.364;18.582;2022-07-05T05:37:54;100620.59;;;34.45;27.10
48364;BME280;34170;54.364;18.582;2022-07-05T05:40:23;100622.19;;;35.37;24.64
48364;BME280;34170;54.364;18.582;2022-07-05T05:42:52;100624.59;;;37.20;21.96
48364;BME280;34170;54.364;18.582;2022-07-05T05:45:20;100637.28;;;39.15;20.49
48364;BME280;34170;54.364;18.582;2022-07-05T05:47:48;100641.38;;;40.34;19.15
48364;BME280;34170;54.364;18.582;2022-07-05T05:50:34;100636.84;;;40.12;18.98
48364;BME280;34170;54.364;18.582;2022-07-05T05:53:02;100639.44;;;39.18;19.88
48364;BME280;34170;54.364;18.582;2022-07-05T05:55:30;100632.47;;;39.41;19.31
48364;BME280;34170;54.364;18.582;2022-07-05T05:58:14;100642.28;;;40.56;18.55
48364;BME280;34170;54.364;18.582;2022-07-05T06:00:43;100646.41;;;41.39;17.14
48364;BME280;34170;54.364;18.582;2022-07-05T06:03:15;100642.81;;;41.09;17.71
48364;BME280;34170;54.364;18.582;2022-07-05T06:05:43;100645.66;;;41.84;16.17
48364;BME280;34170;54.364;18.582;2022-07-05T06:08:11;100658.50;;;41.61;16.38
48364;BME280;34170;54.364;18.582;2022-07-05T06:10:39;100652.94;;;41.52;16.87
48364;BME280;34170;54.364;18.582;2022-07-05T06:13:08;100665.03;;;42.32;15.96
48364;BME280;34170;54.364;18.582;2022-07-05T06:15:35;100658.56;;;41.85;16.13
48364;BME280;34170;54.364;18.582;2022-07-05T06:18:03;100665.75;;;43.15;15.36
48364;BME280;34170;54.364;18.582;2022-07-05T06:20:32;100666.34;;;43.49;15.56
48364;BME280;34170;54.364;18.582;2022-07-05T06:23:01;100665.19;;;42.60;15.72
48364;BME280;34170;54.364;18.582;2022-07-05T06:25:30;100675.97;;;42.21;16.07
48364;BME280;34170;54.364;18.582;2022-07-05T06:28:03;100673.59;;;40.16;17.85
48364;BME280;34170;54.364;18.582;2022-07-05T06:30:32;100672.03;;;41.04;17.34
48364;BME280;34170;54.364;18.582;2022-07-05T06:33:00;100674.63;;;42.52;15.94
48364;BME280;34170;54.364;18.582;2022-07-05T06:35:29;100676.50;;;42.97;15.69
48364;BME280;34170;54.364;18.582;2022-07-05T06:38:06;100679.72;;;43.64;15.62
48364;BME280;34170;54.364;18.582;2022-07-05T06:40:36;100684.34;;;44.61;14.48
48364;BME280;34170;54.364;18.582;2022-07-05T06:43:06;100677.47;;;44.78;13.35
48364;BME280;34170;54.364;18.582;2022-07-05T06:45:40;100682.56;;;43.92;14.57
48364;BME280;34170;54.364;18.582;2022-07-05T06:48:10;100677.44;;;43.98;14.08
48364;BME280;34170;54.364;18.582;2022-07-05T06:50:40;100668.91;;;39.64;17.36
48364;BME280;34170;54.364;18.582;2022-07-05T06:53:08;100682.91;;;41.78;15.52
48364;BME280;34170;54.364;18.582;2022-07-05T06:55:36;100680.44;;;41.76;16.20
48364;BME280;34170;54.364;18.582;2022-07-05T06:58:05;100683.69;;;43.47;15.07
48364;BME280;34170;54.364;18.582;2022-07-05T07:00:39;100673.91;;;42.67;15.56
48364;BME280;34170;54.364;18.582;2022-07-05T07:03:26;100675.97;;;39.88;18.18
48364;BME280;34170;54.364;18.582;2022-07-05T07:06:14;100681.63;;;41.33;16.01
48364;BME280;34170;54.364;18.582;2022-07-05T07:08:42;100676.97;;;41.91;15.99
48364;BME280;34170;54.364;18.582;2022-07-05T07:11:29;100677.22;;;42.57;15.63
48364;BME280;34170;54.364;18.582;2022-07-05T07:13:57;100674.72;;;42.80;15.71
48364;BME280;34170;54.364;18.582;2022-07-05T07:16:24;100672.38;;;42.94;14.80
48364;BME280;34170;54.364;18.582;2022-07-05T07:18:53;100666.53;;;43.28;14.49
48364;BME280;34170;54.364;18.582;2022-07-05T07:21:38;100667.59;;;41.66;16.02
48364;BME280;34170;54.364;18.582;2022-07-05T07:24:07;100665.00;;;43.87;14.21
48364;BME280;34170;54.364;18.582;2022-07-05T07:26:35;100671.09;;;45.55;13.56
48364;BME280;34170;54.364;18.582;2022-07-05T07:29:25;100667.03;;;44.98;13.72
48364;BME280;34170;54.364;18.582;2022-07-05T07:31:52;100662.34;;;42.11;15.75
48364;BME280;34170;54.364;18.582;2022-07-05T07:34:20;100662.34;;;41.35;16.78
48364;BME280;34170;54.364;18.582;2022-07-05T07:36:48;100662.34;;;41.35;16.78
48364;BME280;34170;54.364;18.582;2022-07-05T07:39:17;100651.38;;;37.72;19.60
48364;BME280;34170;54.364;18.582;2022-07-05T07:41:45;100654.47;;;39.31;17.83
48364;BME280;34170;54.364;18.582;2022-07-05T07:44:13;100660.03;;;40.09;17.37
48364;BME280;34170;54.364;18.582;2022-07-05T07:46:40;100641.53;;;35.85;21.66
48364;BME280;34170;54.364;18.582;2022-07-05T07:49:08;100639.16;;;33.37;24.04
48364;BME280;34170;54.364;18.582;2022-07-05T07:51:36;100632.63;;;32.47;25.69
48364;BME280;34170;54.364;18.582;2022-07-05T07:54:04;100633.00;;;31.74;26.62
48364;BME280;34170;54.364;18.582;2022-07-05T07:56:31;100643.28;;;31.63;27.17
48364;BME280;34170;54.364;18.582;2022-07-05T07:58:59;100632.16;;;31.63;27.79
48364;BME280;34170;54.364;18.582;2022-07-05T08:01:26;100634.34;;;31.46;27.86
48364;BME280;34170;54.364;18.582;2022-07-05T08:03:53;100631.00;;;31.18;27.88
48364;BME280;34170;54.364;18.582;2022-07-05T08:06:21;100633.91;;;29.90;29.98
48364;BME280;34170;54.364;18.582;2022-07-05T08:08:48;100635.22;;;29.77;30.08
48364;BME280;34170;54.364;18.582;2022-07-05T08:11:15;100631.59;;;29.44;31.22
48364;BME280;34170;54.364;18.582;2022-07-05T08:13:43;100633.31;;;30.68;29.87
48364;BME280;34170;54.364;18.582;2022-07-05T08:16:11;100629.47;;;29.02;31.85
48364;BME280;34170;54.364;18.582;2022-07-05T08:18:39;100619.53;;;29.93;30.77
48364;BME280;34170;54.364;18.582;2022-07-05T08:21:25;100628.91;;;30.25;30.13
48364;BME280;34170;54.364;18.582;2022-07-05T08:23:59;100624.59;;;30.49;29.44
48364;BME280;34170;54.364;18.582;2022-07-05T08:26:27;100638.25;;;31.40;28.48
48364;BME280;34170;54.364;18.582;2022-07-05T08:28:55;100638.50;;;32.36;27.73
48364;BME280;34170;54.364;18.582;2022-07-05T08:31:40;100630.06;;;33.61;25.91
48364;BME280;34170;54.364;18.582;2022-07-05T08:34:08;100630.66;;;30.36;28.88
48364;BME280;34170;54.364;18.582;2022-07-05T08:36:36;100629.34;;;31.27;28.58
48364;BME280;34170;54.364;18.582;2022-07-05T08:39:04;100617.78;;;30.72;30.17
48364;BME280;34170;54.364;18.582;2022-07-05T08:41:35;100626.06;;;31.61;27.81
48364;BME280;34170;54.364;18.582;2022-07-05T08:44:04;100622.38;;;30.03;30.47
48364;BME280;34170;54.364;18.582;2022-07-05T08:46:32;100623.75;;;29.69;31.46
48364;BME280;34170;54.364;18.582;2022-07-05T08:49:02;100636.25;;;29.71;31.11
48364;BME280;34170;54.364;18.582;2022-07-05T08:51:40;100630.31;;;30.90;30.52
48364;BME280;34170;54.364;18.582;2022-07-05T08:54:10;100626.84;;;32.03;28.46
48364;BME280;34170;54.364;18.582;2022-07-05T08:56:43;100623.38;;;30.83;29.00
48364;BME280;34170;54.364;18.582;2022-07-05T08:59:30;100623.50;;;29.70;30.57
48364;BME280;34170;54.364;18.582;2022-07-05T09:01:59;100628.84;;;32.13;27.73
48364;BME280;34170;54.364;18.582;2022-07-05T09:04:31;100631.03;;;31.80;27.01
48364;BME280;34170;54.364;18.582;2022-07-05T09:07:04;100625.66;;;33.10;25.15
48364;BME280;34170;54.364;18.582;2022-07-05T09:09:33;100617.50;;;34.27;24.43
48364;BME280;34170;54.364;18.582;2022-07-05T09:12:01;100626.28;;;35.26;23.19
48364;BME280;34170;54.364;18.582;2022-07-05T09:14:47;100627.53;;;35.53;22.59
48364;BME280;34170;54.364;18.582;2022-07-05T09:17:15;100621.09;;;36.59;22.61
48364;BME280;34170;54.364;18.582;2022-07-05T09:19:43;100628.19;;;36.85;21.87
48364;BME280;34170;54.364;18.582;2022-07-05T09:22:10;100616.69;;;34.46;24.55
48364;BME280;34170;54.364;18.582;2022-07-05T09:24:45;100615.19;;;31.90;26.78
48364;BME280;34170;54.364;18.582;2022-07-05T09:27:14;100623.44;;;30.98;28.51
48364;BME280;34170;54.364;18.582;2022-07-05T09:29:54;100613.78;;;31.21;28.00
48364;BME280;34170;54.364;18.582;2022-07-05T09:32:29;100606.47;;;29.89;30.65
48364;BME280;34170;54.364;18.582;2022-07-05T09:35:18;100608.19;;;30.37;29.88
48364;BME280;34170;54.364;18.582;2022-07-05T09:37:46;100596.75;;;30.29;30.59
48364;BME280;34170;54.364;18.582;2022-07-05T09:40:14;100610.16;;;32.28;28.46
48364;BME280;34170;54.364;18.582;2022-07-05T09:42:47;100603.00;;;32.82;26.61
48364;BME280;34170;54.364;18.582;2022-07-05T09:45:23;100603.81;;;33.67;25.34
48364;BME280;34170;54.364;18.582;2022-07-05T09:47:50;100591.13;;;34.82;24.46
48364;BME280;34170;54.364;18.582;2022-07-05T09:50:40;100604.84;;;35.73;23.16
48364;BME280;34170;54.364;18.582;2022-07-05T09:53:44;100585.25;;;33.52;24.81
48364;BME280;34170;54.364;18.582;2022-07-05T09:56:12;100587.69;;;31.38;28.61
48364;BME280;34170;54.364;18.582;2022-07-05T09:58:41;100585.03;;;30.69;30.00
48364;BME280;34170;54.364;18.582;2022-07-05T10:01:28;100586.09;;;30.05;29.60
48364;BME280;34170;54.364;18.582;2022-07-05T10:03:58;100586.56;;;31.23;28.36
48364;BME280;34170;54.364;18.582;2022-07-05T10:06:27;100580.53;;;32.63;26.60
48364;BME280;34170;54.364;18.582;2022-07-05T10:08:55;100586.75;;;34.51;23.90
48364;BME280;34170;54.364;18.582;2022-07-05T10:11:23;100586.22;;;35.30;23.37
48364;BME280;34170;54.364;18.582;2022-07-05T10:13:57;100587.19;;;35.92;22.40
48364;BME280;34170;54.364;18.582;2022-07-05T10:16:25;100581.25;;;35.79;22.19
48364;BME280;34170;54.364;18.582;2022-07-05T10:18:55;100585.47;;;35.25;23.71
48364;BME280;34170;54.364;18.582;2022-07-05T10:21:24;100581.91;;;35.19;23.55
48364;BME280;34170;54.364;18.582;2022-07-05T10:23:52;100571.53;;;34.14;23.82
48364;BME280;34170;54.364;18.582;2022-07-05T10:26:22;100573.94;;;34.02;24.12
48364;BME280;34170;54.364;18.582;2022-07-05T10:28:52;100576.53;;;34.66;23.33
48364;BME280;34170;54.364;18.582;2022-07-05T10:31:28;100579.41;;;35.18;22.52
48364;BME280;34170;54.364;18.582;2022-07-05T10:33:57;100568.16;;;33.30;24.48
48364;BME280;34170;54.364;18.582;2022-07-05T10:36:54;100564.88;;;31.20;27.19
48364;BME280;34170;54.364;18.582;2022-07-05T10:39:22;100573.19;;;31.97;26.89
48364;BME280;34170;54.364;18.582;2022-07-05T10:41:53;100567.09;;;32.81;25.89
48364;BME280;34170;54.364;18.582;2022-07-05T10:44:34;100564.25;;;33.31;24.65
48364;BME280;34170;54.364;18.582;2022-07-05T10:47:11;100558.19;;;33.23;24.15
48364;BME280;34170;54.364;18.582;2022-07-05T10:49:40;100562.41;;;31.65;26.74
48364;BME280;34170;54.364;18.582;2022-07-05T10:52:25;100553.78;;;31.71;26.37
48364;BME280;34170;54.364;18.582;2022-07-05T10:58:40;100555.94;;;30.92;28.45
48364;BME280;34170;54.364;18.582;2022-07-05T11:03:41;100546.44;;;28.53;31.52
48364;BME280;34170;54.364;18.582;2022-07-05T11:07:01;100549.84;;;30.95;27.90
48364;BME280;34170;54.364;18.582;2022-07-05T11:11:41;100529.03;;;31.80;26.85
48364;BME280;34170;54.364;18.582;2022-07-05T11:14:32;100532.59;;;30.88;27.36
48364;BME280;34170;54.364;18.582;2022-07-05T11:17:10;100534.91;;;29.80;29.45
48364;BME280;34170;54.364;18.582;2022-07-05T11:20:03;100536.56;;;29.44;31.11
48364;BME280;34170;54.364;18.582;2022-07-05T11:22:32;100528.66;;;29.25;30.63
48364;BME280;34170;54.364;18.582;2022-07-05T11:25:01;100535.47;;;28.85;31.15
48364;BME280;34170;54.364;18.582;2022-07-05T11:27:29;100537.75;;;28.94;32.48
48364;BME280;34170;54.364;18.582;2022-07-05T11:29:58;100530.72;;;28.14;32.93
48364;BME280;34170;54.364;18.582;2022-07-05T11:35:11;100546.88;;;27.67;34.37
48364;BME280;34170;54.364;18.582;2022-07-05T11:38:05;100560.88;;;27.14;37.17
48364;BME280;34170;54.364;18.582;2022-07-05T11:40:54;100562.84;;;26.44;39.68
48364;BME280;34170;54.364;18.582;2022-07-05T11:43:27;100550.31;;;25.66;41.16
48364;BME280;34170;54.364;18.582;2022-07-05T11:45:59;100552.19;;;25.30;42.92
48364;BME280;34170;54.364;18.582;2022-07-05T11:48:27;100552.63;;;25.15;43.54
48364;BME280;34170;54.364;18.582;2022-07-05T11:50:55;100560.22;;;25.01;44.60
48364;BME280;34170;54.364;18.582;2022-07-05T11:53:28;100544.66;;;24.95;44.16
48364;BME280;34170;54.364;18.582;2022-07-05T11:56:15;100563.56;;;25.03;44.59
48364;BME280;34170;54.364;18.582;2022-07-05T11:58:43;100560.97;;;24.78;44.70
48364;BME280;34170;54.364;18.582;2022-07-05T12:01:10;100573.09;;;23.96;49.51
48364;BME280;34170;54.364;18.582;2022-07-05T12:03:37;100555.34;;;23.99;51.19
48364;BME280;34170;54.364;18.582;2022-07-05T12:06:14;100557.56;;;24.09;52.13
48364;BME280;34170;54.364;18.582;2022-07-05T12:08:42;100539.09;;;23.54;54.28
48364;BME280;34170;54.364;18.582;2022-07-05T12:11:12;100547.78;;;23.69;54.03
48364;BME280;34170;54.364;18.582;2022-07-05T12:13:58;100544.88;;;22.23;58.44
48364;BME280;34170;54.364;18.582;2022-07-05T12:16:25;100548.88;;;22.27;58.31
48364;BME280;34170;54.364;18.582;2022-07-05T12:18:54;100555.66;;;22.05;63.17
48364;BME280;34170;54.364;18.582;2022-07-05T12:21:23;100548.94;;;22.01;64.79
48364;BME280;34170;54.364;18.582;2022-07-05T12:23:51;100558.44;;;21.92;63.52
48364;BME280;34170;54.364;18.582;2022-07-05T12:26:20;100551.31;;;21.77;64.41
48364;BME280;34170;54.364;18.582;2022-07-05T12:28:49;100552.75;;;21.86;63.87
48364;BME280;34170;54.364;18.582;2022-07-05T12:31:21;100566.41;;;22.06;65.10
48364;BME280;34170;54.364;18.582;2022-07-05T12:33:51;100565.16;;;22.02;63.45
48364;BME280;34170;54.364;18.582;2022-07-05T12:36:20;100565.41;;;21.87;64.11
48364;BME280;34170;54.364;18.582;2022-07-05T12:38:58;100564.34;;;21.88;64.94
48364;BME280;34170;54.364;18.582;2022-07-05T12:41:25;100564.13;;;21.83;65.07
48364;BME280;34170;54.364;18.582;2022-07-05T12:43:58;100559.88;;;22.07;64.51
48364;BME280;34170;54.364;18.582;2022-07-05T12:49:10;100582.19;;;22.18;65.59
48364;BME280;34170;54.364;18.582;2022-07-05T12:51:41;100579.91;;;21.41;70.56
48364;BME280;34170;54.364;18.582;2022-07-05T12:54:22;100579.84;;;21.01;73.24
48364;BME280;34170;54.364;18.582;2022-07-05T12:57:08;100585.72;;;21.05;72.75
48364;BME280;34170;54.364;18.582;2022-07-05T13:00:00;100596.69;;;21.11;74.00
48364;BME280;34170;54.364;18.582;2022-07-05T13:02:55;100606.25;;;20.74;75.76
48364;BME280;34170;54.364;18.582;2022-07-05T13:05:23;100587.53;;;20.29;77.03
48364;BME280;34170;54.364;18.582;2022-07-05T13:07:52;100595.91;;;20.21;78.80
48364;BME280;34170;54.364;18.582;2022-07-05T13:10:26;100596.00;;;20.48;77.38
48364;BME280;34170;54.364;18.582;2022-07-05T13:13:06;100586.34;;;20.45;76.84